Weatherford, Texas
Current Conditions -  °F | °C
As of 9:53 AM on Thursday 23 Oct 2014 (Local Time) from KMWL Reporting Station
Scattered Clouds Scattered Clouds  
Wind Chill: 67°   Ceiling: Unl
Heat Index: 67°   Visibility: 8mi
Dew Point: 57°   Wind: 7mph
Humidity: 70%   Direction: 150°SSE
Pressure: 30.14"   Gusts: NA
Location:  32.76°N, 97.8°W
Report Text: KMWL 231453Z AUTO 15006KT 8SM SCT070 19/14 A3014 RMK AO2 SLP197 T01940139 53011
Loading
Personal Weather Stations






























Interactive Weather Map
Tropical Storm Tracking
New forecast layout! Learn more

10-Day Weather Forecast

Advertisements
Track Severe Weather on mobile